createdAt,value
2018-01-23T00:02:02.521Z,2.13
2018-01-23T00:04:32.010Z,1.77
2018-01-23T00:07:01.252Z,2.03
2018-01-23T00:09:30.513Z,2.17
2018-01-23T00:11:59.762Z,1.60
2018-01-23T00:14:29.017Z,1.80
2018-01-23T00:16:58.337Z,2.40
2018-01-23T00:19:28.333Z,2.07
2018-01-23T00:21:57.621Z,2.07
2018-01-23T00:24:26.873Z,2.17
2018-01-23T00:26:56.865Z,2.17
2018-01-23T00:29:26.120Z,2.10
2018-01-23T00:31:55.356Z,1.70
2018-01-23T00:34:24.614Z,2.50
2018-01-23T00:36:53.841Z,1.70
2018-01-23T00:39:23.095Z,1.83
2018-01-23T00:41:52.328Z,2.10
2018-01-23T00:44:21.588Z,3.30
2018-01-23T00:46:50.821Z,1.90
2018-01-23T00:49:20.091Z,2.03
2018-01-23T00:51:50.096Z,2.20
2018-01-23T00:54:19.320Z,1.90
2018-01-23T00:56:48.585Z,1.90
2018-01-23T00:59:17.853Z,2.00
2018-01-23T01:01:47.106Z,2.07
2018-01-23T01:04:16.332Z,1.47
2018-01-23T01:06:45.594Z,1.60
2018-01-23T01:09:15.614Z,2.77
2018-01-23T01:11:44.873Z,1.87
2018-01-23T01:14:14.097Z,1.80
2018-01-23T01:16:43.341Z,2.37
2018-01-23T01:19:12.598Z,1.57
2018-01-23T01:21:41.845Z,2.80
2018-01-23T01:24:11.081Z,2.13
2018-01-23T01:26:40.333Z,2.50
2018-01-23T01:29:09.580Z,1.77
2018-01-23T01:31:38.833Z,1.80
2018-01-23T01:34:08.821Z,2.37
2018-01-23T01:36:38.840Z,1.47
2018-01-23T01:39:08.857Z,2.70
2018-01-23T01:41:38.092Z,1.50
2018-01-23T01:44:07.338Z,2.43
2018-01-23T01:46:36.564Z,1.97
2018-01-23T01:49:05.844Z,2.77
2018-01-23T01:51:35.083Z,2.17
2018-01-23T01:54:05.088Z,1.97
2018-01-23T01:56:34.340Z,2.40
2018-01-23T01:59:04.305Z,2.10
2018-01-23T02:01:35.036Z,1.47
2018-01-23T02:04:04.297Z,2.57
2018-01-23T02:06:33.725Z,2.70
2018-01-23T02:09:02.997Z,1.80
2018-01-23T02:11:32.234Z,2.00
2018-01-23T02:14:01.473Z,2.00
2018-01-23T02:16:30.739Z,1.83
2018-01-23T02:19:00.010Z,1.70
2018-01-23T02:21:29.244Z,2.13
2018-01-23T02:23:58.488Z,2.57
2018-01-23T02:26:27.972Z,1.93
2018-01-23T02:28:57.976Z,2.00
2018-01-23T02:31:27.237Z,1.70
2018-01-23T02:33:56.472Z,2.20
2018-01-23T02:36:25.742Z,2.93
2018-01-23T02:38:55.445Z,2.27
2018-01-23T02:41:24.677Z,2.30
2018-01-23T02:43:53.916Z,2.30
2018-01-23T02:46:23.349Z,1.80
2018-01-23T02:48:52.601Z,3.17
2018-01-23T02:51:21.841Z,2.43
2018-01-23T02:53:51.229Z,2.40
2018-01-23T02:56:20.469Z,2.70
2018-01-23T02:58:49.727Z,2.20
2018-01-23T03:01:19.092Z,2.73
2018-01-23T03:03:49.093Z,2.70
2018-01-23T03:06:18.345Z,2.30
2018-01-23T03:08:47.596Z,2.60
2018-01-23T03:11:16.845Z,2.50
2018-01-23T03:13:46.077Z,2.33
2018-01-23T03:16:15.336Z,3.10
2018-01-23T03:18:44.590Z,2.60
2018-01-23T03:21:13.896Z,2.80
2018-01-23T03:23:43.936Z,2.90
2018-01-23T03:26:13.957Z,2.70
2018-01-23T03:28:43.195Z,2.30
2018-01-23T03:31:12.456Z,2.73
2018-01-23T03:33:42.456Z,2.60
2018-01-23T03:36:11.713Z,3.03
2018-01-23T03:38:40.969Z,2.57
2018-01-23T03:41:10.255Z,2.47
2018-01-23T03:43:39.463Z,2.60
2018-01-23T03:46:09.629Z,2.67
2018-01-23T03:48:38.876Z,2.43
2018-01-23T03:51:08.098Z,2.40
2018-01-23T03:53:38.112Z,2.30
2018-01-23T03:56:07.365Z,2.60
2018-01-23T03:58:36.625Z,3.47
2018-01-23T04:01:06.625Z,2.60
2018-01-23T04:03:35.920Z,3.43
2018-01-23T04:06:05.221Z,3.10
2018-01-23T04:08:34.486Z,2.50
2018-01-23T04:11:03.709Z,2.73
2018-01-23T04:13:32.997Z,3.20
2018-01-23T04:16:02.257Z,3.90
2018-01-23T04:18:31.505Z,2.93
2018-01-23T04:21:00.741Z,2.87
2018-01-23T04:23:30.757Z,3.57
2018-01-23T04:26:00.014Z,2.63
2018-01-23T04:28:29.276Z,2.43
2018-01-23T04:30:59.272Z,2.70
2018-01-23T04:33:28.540Z,3.97
2018-01-23T04:35:57.778Z,2.97
2018-01-23T04:38:27.790Z,3.43
2018-01-23T04:40:57.781Z,4.00
2018-01-23T04:43:27.016Z,3.53
2018-01-23T04:45:56.253Z,2.77
2018-01-23T04:48:25.498Z,4.00
2018-01-23T04:50:54.798Z,3.50
2018-01-23T04:53:24.056Z,3.13
2018-01-23T04:55:53.296Z,3.07
2018-01-23T04:58:22.566Z,4.20
2018-01-23T05:00:53.349Z,3.30
2018-01-23T05:03:22.604Z,3.67
2018-01-23T05:05:51.857Z,3.57
2018-01-23T05:08:21.865Z,3.37
2018-01-23T05:10:51.123Z,3.70
2018-01-23T05:13:20.709Z,3.80
2018-01-23T05:15:49.923Z,3.43
2018-01-23T05:18:19.174Z,3.20
2018-01-23T05:20:49.200Z,3.80
2018-01-23T05:23:18.449Z,3.30
2018-01-23T05:25:47.711Z,4.20
2018-01-23T05:28:17.072Z,2.87
2018-01-23T05:30:46.380Z,3.20
2018-01-23T05:33:15.665Z,3.03
2018-01-23T05:35:44.912Z,3.60
2018-01-23T05:38:14.945Z,4.60
2018-01-23T05:40:44.198Z,3.37
2018-01-23T05:43:13.476Z,3.40
2018-01-23T05:45:42.738Z,3.00
2018-01-23T05:48:12.744Z,3.17
2018-01-23T05:50:41.998Z,3.50
2018-01-23T05:53:11.257Z,3.30
2018-01-23T05:55:40.779Z,3.90
2018-01-23T05:58:10.133Z,2.83
2018-01-23T06:00:40.950Z,3.20
2018-01-23T06:03:10.196Z,3.20
2018-01-23T06:05:40.394Z,3.90
2018-01-23T06:08:09.658Z,4.80
2018-01-23T06:10:38.897Z,3.20
2018-01-23T06:13:09.677Z,4.23
2018-01-23T06:15:38.926Z,3.47
2018-01-23T06:18:08.168Z,2.50
2018-01-23T06:20:37.449Z,3.17
2018-01-23T06:23:06.695Z,3.17
2018-01-23T06:25:36.234Z,3.30
2018-01-23T06:28:05.542Z,3.70
2018-01-23T06:30:34.764Z,4.47
2018-01-23T06:33:04.029Z,3.50
2018-01-23T06:35:33.268Z,3.43
2018-01-23T06:38:03.365Z,3.80
2018-01-23T06:40:32.589Z,3.30
2018-01-23T06:43:01.876Z,2.77
2018-01-23T06:45:31.168Z,3.20
2018-01-23T06:48:00.380Z,3.00
2018-01-23T06:50:30.552Z,3.30
2018-01-23T06:52:59.845Z,3.20
2018-01-23T06:55:29.044Z,2.60
2018-01-23T06:57:58.308Z,2.57
2018-01-23T07:00:27.549Z,4.00
2018-01-23T07:02:56.810Z,3.57
2018-01-23T07:05:26.860Z,2.80
2018-01-23T07:07:56.121Z,3.47
2018-01-23T07:10:25.388Z,3.70
2018-01-23T07:12:54.641Z,2.67
2018-01-23T07:15:23.883Z,2.90
2018-01-23T07:17:53.141Z,3.10
2018-01-23T07:20:22.614Z,2.57
2018-01-23T07:22:52.108Z,3.20
2018-01-23T07:25:21.373Z,3.10
2018-01-23T07:27:50.627Z,4.10
2018-01-23T07:30:19.894Z,3.30
2018-01-23T07:32:49.168Z,3.17
2018-01-23T07:35:18.438Z,2.77
2018-01-23T07:37:47.677Z,2.50
2018-01-23T07:40:16.942Z,2.43
2018-01-23T07:42:46.964Z,2.73
2018-01-23T07:45:16.245Z,2.67
2018-01-23T07:47:46.992Z,1.97
2018-01-23T07:50:16.277Z,3.30
2018-01-23T07:52:45.594Z,2.97
2018-01-23T07:55:14.877Z,2.60
2018-01-23T07:57:44.124Z,2.60
2018-01-23T08:00:13.380Z,3.10
2018-01-23T08:02:42.628Z,2.87
2018-01-23T08:05:11.852Z,2.70
2018-01-23T08:07:41.176Z,2.37
2018-01-23T08:10:10.436Z,3.23
2018-01-23T08:12:39.682Z,2.83
2018-01-23T08:15:08.939Z,3.20
2018-01-23T08:17:38.201Z,2.90
2018-01-23T08:20:07.449Z,2.00
2018-01-23T08:22:36.678Z,2.70
2018-01-23T08:25:05.932Z,3.30
2018-01-23T08:27:35.180Z,3.10
2018-01-23T08:30:04.445Z,3.07
2018-01-23T08:32:33.693Z,2.87
2018-01-23T08:35:03.251Z,2.20
2018-01-23T08:37:32.678Z,2.90
2018-01-23T08:40:02.036Z,2.97
2018-01-23T08:42:32.065Z,2.50
2018-01-23T08:45:01.330Z,2.50
2018-01-23T08:47:30.849Z,2.30
2018-01-23T08:50:00.084Z,2.73
2018-01-23T08:52:29.349Z,2.97
2018-01-23T08:54:59.368Z,3.27
2018-01-23T08:57:28.614Z,2.40
2018-01-23T08:59:57.961Z,3.17
2018-01-23T09:02:27.977Z,2.73
2018-01-23T09:04:57.310Z,2.23
2018-01-23T09:07:26.606Z,2.20
2018-01-23T09:09:56.626Z,2.30
2018-01-23T09:12:25.980Z,1.73
2018-01-23T09:14:55.235Z,2.90
2018-01-23T09:17:24.602Z,2.20
2018-01-23T09:19:53.930Z,2.27
2018-01-23T09:22:23.941Z,2.30
2018-01-23T09:24:53.181Z,3.13
2018-01-23T09:27:22.434Z,2.63
2018-01-23T09:29:52.452Z,2.40
2018-01-23T09:32:21.718Z,1.93
2018-01-23T09:34:50.970Z,2.30
2018-01-23T09:37:20.201Z,2.40
2018-01-23T09:39:49.465Z,1.83
2018-01-23T09:42:18.708Z,2.10
2018-01-23T09:44:47.952Z,3.50
2018-01-23T09:47:18.002Z,3.60
2018-01-23T09:49:47.225Z,2.83
2018-01-23T09:52:16.469Z,2.10
2018-01-23T09:54:46.525Z,2.57
2018-01-23T09:57:15.821Z,3.10
2018-01-23T09:59:45.082Z,2.70
2018-01-23T10:02:14.325Z,3.50
2018-01-23T10:04:43.582Z,4.47
2018-01-23T10:07:12.830Z,4.53
2018-01-23T10:09:42.090Z,3.87
2018-01-23T10:12:11.321Z,4.83
2018-01-23T10:14:40.625Z,4.30
2018-01-23T10:17:09.861Z,6.73
2018-01-23T10:19:39.121Z,5.87
2018-01-23T10:22:08.365Z,5.80
2018-01-23T10:24:37.708Z,5.40
2018-01-23T10:27:06.958Z,5.50
2018-01-23T10:29:36.230Z,3.97
2018-01-23T10:32:05.482Z,5.87
2018-01-23T10:34:34.725Z,6.13
2018-01-23T10:37:04.008Z,7.03
2018-01-23T10:39:33.270Z,7.60
2018-01-23T10:42:02.574Z,6.47
2018-01-23T10:44:32.129Z,4.40
2018-01-23T10:47:01.416Z,6.20
2018-01-23T10:49:30.663Z,4.17
2018-01-23T10:51:59.901Z,6.67
2018-01-23T10:54:29.182Z,5.93
2018-01-23T10:56:58.548Z,5.50
2018-01-23T10:59:27.805Z,5.60
2018-01-23T11:01:57.896Z,6.43
2018-01-23T11:04:27.165Z,6.20
2018-01-23T11:06:56.485Z,7.87
2018-01-23T11:09:25.762Z,7.83
2018-01-23T11:11:55.118Z,5.57
2018-01-23T11:14:24.377Z,6.87
2018-01-23T11:16:53.670Z,6.53
2018-01-23T11:19:23.150Z,6.70
2018-01-23T11:21:52.418Z,11.40
2018-01-23T11:24:21.687Z,7.07
2018-01-23T11:26:50.940Z,5.80
2018-01-23T11:29:20.562Z,6.53
2018-01-23T11:31:49.946Z,8.23
2018-01-23T11:34:19.968Z,7.73
2018-01-23T11:36:49.260Z,8.20
2018-01-23T11:39:20.042Z,6.90
2018-01-23T11:41:49.321Z,6.73
2018-01-23T11:44:18.937Z,7.17
2018-01-23T11:46:48.965Z,7.13
2018-01-23T11:49:19.030Z,5.43
2018-01-23T11:51:48.315Z,5.60
2018-01-23T11:54:17.573Z,5.93
2018-01-23T11:56:46.815Z,5.97
2018-01-23T11:59:16.269Z,7.00
2018-01-23T12:01:45.776Z,6.30
2018-01-23T12:04:15.181Z,6.50
2018-01-23T12:06:45.230Z,5.73
2018-01-23T12:09:14.464Z,6.63
2018-01-23T12:11:43.732Z,6.87
2018-01-23T12:14:13.005Z,6.50
2018-01-23T12:16:43.025Z,7.10
2018-01-23T12:19:12.309Z,5.00
2018-01-23T12:21:41.562Z,4.67
2018-01-23T12:24:10.823Z,9.50
2018-01-23T12:26:40.300Z,5.73
2018-01-23T12:29:09.558Z,6.43
2018-01-23T12:31:38.908Z,7.27
2018-01-23T12:34:08.124Z,6.30
2018-01-23T12:36:37.558Z,4.67
2018-01-23T12:39:06.814Z,6.10
2018-01-23T12:41:36.127Z,5.40
2018-01-23T12:44:05.407Z,5.73
2018-01-23T12:46:34.662Z,4.43
2018-01-23T12:49:04.129Z,5.40
2018-01-23T12:51:33.378Z,20.00
2018-01-23T12:54:02.644Z,8.47
2018-01-23T12:56:32.677Z,7.40
2018-01-23T12:59:01.917Z,5.80
2018-01-23T13:01:31.183Z,5.30
2018-01-23T13:04:00.673Z,7.07
2018-01-23T13:06:30.122Z,6.47
2018-01-23T13:08:59.398Z,5.30
2018-01-23T13:11:28.659Z,7.37
2018-01-23T13:13:58.357Z,6.83
2018-01-23T13:16:27.645Z,5.80
2018-01-23T13:18:56.920Z,6.83
2018-01-23T13:21:26.196Z,8.80
2018-01-23T13:23:56.271Z,10.80
2018-01-23T13:26:26.165Z,6.90
2018-01-23T13:28:55.452Z,4.80
2018-01-23T13:31:24.728Z,5.23
2018-01-23T13:33:54.072Z,6.73
2018-01-23T13:36:23.320Z,6.03
2018-01-23T13:38:54.088Z,5.80
2018-01-23T13:41:23.356Z,5.97
2018-01-23T13:43:52.630Z,6.27
2018-01-23T13:46:21.896Z,5.70
2018-01-23T13:48:51.162Z,5.90
2018-01-23T13:51:20.413Z,6.90
2018-01-23T13:53:49.689Z,5.63
2018-01-23T13:56:18.941Z,4.73
2018-01-23T13:58:48.201Z,4.70
2018-01-23T14:01:17.447Z,6.27
2018-01-23T14:03:46.721Z,5.60
2018-01-23T14:06:16.006Z,5.73
2018-01-23T14:08:45.253Z,4.50
2018-01-23T14:11:14.516Z,6.40
2018-01-23T14:13:43.807Z,7.10
2018-01-23T14:16:13.061Z,4.70
2018-01-23T14:18:42.328Z,4.37
2018-01-23T14:21:11.587Z,5.00
2018-01-23T14:23:40.851Z,4.93
2018-01-23T14:26:10.108Z,4.60
2018-01-23T14:28:39.425Z,4.43
2018-01-23T14:31:09.541Z,4.87
2018-01-23T14:33:38.835Z,5.13
2018-01-23T14:36:08.076Z,6.00
2018-01-23T14:38:37.510Z,8.80
2018-01-23T14:41:07.533Z,8.50
2018-01-23T14:43:37.037Z,6.57
2018-01-23T14:46:07.081Z,9.83
2018-01-23T14:48:37.197Z,7.40
2018-01-23T14:51:06.481Z,6.30
2018-01-23T14:53:35.745Z,5.90
2018-01-23T14:56:05.052Z,4.70
2018-01-23T14:58:34.301Z,5.13
2018-01-23T15:01:04.359Z,4.80
2018-01-23T15:03:33.597Z,4.60
2018-01-23T15:06:02.870Z,5.73
2018-01-23T15:08:32.115Z,6.57
2018-01-23T15:11:01.378Z,4.57
2018-01-23T15:13:30.649Z,5.90
2018-01-23T15:15:59.904Z,5.57
2018-01-23T15:18:29.178Z,5.13
2018-01-23T15:20:58.438Z,6.90
2018-01-23T15:23:27.709Z,5.00
2018-01-23T15:25:57.753Z,4.07
2018-01-23T15:28:27.013Z,5.00
2018-01-23T15:30:56.282Z,4.80
2018-01-23T15:33:25.534Z,3.83
2018-01-23T15:35:55.557Z,4.73
2018-01-23T15:38:24.828Z,3.80
2018-01-23T15:40:54.078Z,3.73
2018-01-23T15:43:23.324Z,3.60
2018-01-23T15:45:52.613Z,4.00
2018-01-23T15:48:21.874Z,4.10
2018-01-23T15:50:51.734Z,4.10
2018-01-23T15:53:21.973Z,4.27
2018-01-23T15:55:51.241Z,4.73
2018-01-23T15:58:20.485Z,4.10
2018-01-23T16:00:49.728Z,3.80
2018-01-23T16:03:18.994Z,5.57
2018-01-23T16:05:49.006Z,4.20
2018-01-23T16:08:18.268Z,4.00
2018-01-23T16:10:47.520Z,3.50
2018-01-23T16:13:16.796Z,4.97
2018-01-23T16:15:46.049Z,5.00
2018-01-23T16:18:15.318Z,3.87
2018-01-23T16:20:44.663Z,3.60
2018-01-23T16:23:13.909Z,6.30
2018-01-23T16:25:43.176Z,3.83
2018-01-23T16:28:12.424Z,3.83
2018-01-23T16:30:41.755Z,4.23
2018-01-23T16:33:11.027Z,4.87
2018-01-23T16:35:40.301Z,4.00
2018-01-23T16:38:09.604Z,4.17
2018-01-23T16:40:38.853Z,4.87
2018-01-23T16:43:08.115Z,4.60
2018-01-23T16:45:37.521Z,3.90
2018-01-23T16:48:06.768Z,5.00
2018-01-23T16:50:36.118Z,5.47
2018-01-23T16:53:06.226Z,5.43
2018-01-23T16:55:35.478Z,5.20
2018-01-23T16:58:04.704Z,3.77
2018-01-23T17:00:33.968Z,4.67
2018-01-23T17:03:03.249Z,3.93
2018-01-23T17:05:33.352Z,4.17
2018-01-23T17:08:02.656Z,3.37
2018-01-23T17:10:31.915Z,4.83
2018-01-23T17:13:01.182Z,4.00
2018-01-23T17:15:30.420Z,4.03
2018-01-23T17:17:59.683Z,4.20
2018-01-23T17:20:28.925Z,3.70
2018-01-23T17:22:58.251Z,3.93
2018-01-23T17:25:27.505Z,3.63
2018-01-23T17:27:56.764Z,5.47
2018-01-23T17:30:26.769Z,3.00
2018-01-23T17:32:56.065Z,4.37
2018-01-23T17:35:25.335Z,3.63
2018-01-23T17:37:54.913Z,4.77
2018-01-23T17:40:24.982Z,3.57
2018-01-23T17:42:54.185Z,4.10
2018-01-23T17:45:23.530Z,4.40
2018-01-23T17:47:52.790Z,3.10
2018-01-23T17:50:22.055Z,4.90
2018-01-23T17:52:51.317Z,3.90
2018-01-23T17:55:21.425Z,3.87
2018-01-23T17:57:50.687Z,3.43
2018-01-23T18:00:19.950Z,4.80
2018-01-23T18:02:49.201Z,4.90
2018-01-23T18:05:18.444Z,3.43
2018-01-23T18:07:48.477Z,3.57
2018-01-23T18:10:17.876Z,3.60
2018-01-23T18:12:47.937Z,3.70
2018-01-23T18:15:17.229Z,4.17
2018-01-23T18:17:46.590Z,2.70
2018-01-23T18:20:16.616Z,4.15
2018-01-23T18:22:45.845Z,3.50
2018-01-23T18:25:15.144Z,2.87
2018-01-23T18:27:45.264Z,3.10
2018-01-23T18:30:14.546Z,3.30
2018-01-23T18:32:44.608Z,3.90
2018-01-23T18:35:13.861Z,3.20
2018-01-23T18:37:43.332Z,3.00
2018-01-23T18:40:12.601Z,3.07
2018-01-23T18:42:41.877Z,4.13
2018-01-23T18:45:11.984Z,3.60
2018-01-23T18:47:41.249Z,3.73
2018-01-23T18:50:10.558Z,3.60
2018-01-23T18:52:39.787Z,4.37
2018-01-23T18:55:09.052Z,3.33
2018-01-23T18:57:39.859Z,2.90
2018-01-23T19:00:09.105Z,3.80
2018-01-23T19:02:39.345Z,3.77
2018-01-23T19:05:09.474Z,16.20
2018-01-23T19:07:38.942Z,4.63
2018-01-23T19:10:08.173Z,4.47
2018-01-23T19:12:37.413Z,3.53
2018-01-23T19:15:06.668Z,4.00
2018-01-23T19:17:36.694Z,3.70
2018-01-23T19:20:06.013Z,3.30
2018-01-23T19:22:35.202Z,3.33
2018-01-23T19:25:05.363Z,3.50
2018-01-23T19:27:34.728Z,3.37
2018-01-23T19:30:03.950Z,3.37
2018-01-23T19:32:33.190Z,3.20
2018-01-23T19:35:02.615Z,3.80
2018-01-23T19:37:31.846Z,3.03
2018-01-23T19:40:01.118Z,3.70
2018-01-23T19:42:32.209Z,3.70
2018-01-23T19:45:01.506Z,3.70
2018-01-23T19:47:30.744Z,2.97
2018-01-23T19:50:00.492Z,3.20
2018-01-23T19:52:29.794Z,2.83
2018-01-23T19:54:59.522Z,9.63
2018-01-23T19:57:29.177Z,7.63
2018-01-23T19:59:59.955Z,6.87
2018-01-23T20:02:29.634Z,7.50
2018-01-23T20:04:59.161Z,12.10
2018-01-23T20:07:28.591Z,6.10
2018-01-23T20:09:57.860Z,4.07
2018-01-23T20:12:28.303Z,3.40
2018-01-23T20:14:57.898Z,2.70
2018-01-23T20:17:28.336Z,3.20
2018-01-23T20:19:57.972Z,3.80
2018-01-23T20:22:27.238Z,3.23
2018-01-23T20:24:57.061Z,3.93
2018-01-23T20:27:26.465Z,3.00
2018-01-23T20:29:56.859Z,2.70
2018-01-23T20:32:26.207Z,3.13
2018-01-23T20:34:55.451Z,3.13
2018-01-23T20:37:24.730Z,3.17
2018-01-23T20:39:53.986Z,2.60
2018-01-23T20:42:23.257Z,3.17
2018-01-23T20:44:52.553Z,2.90
2018-01-23T20:47:22.533Z,3.50
2018-01-23T20:49:51.776Z,3.27
2018-01-23T20:52:21.026Z,3.70
2018-01-23T20:54:50.284Z,3.80
2018-01-23T20:57:19.571Z,3.20
2018-01-23T20:59:48.831Z,3.30
2018-01-23T21:02:18.213Z,4.20
2018-01-23T21:04:47.485Z,5.23
2018-01-23T21:07:16.917Z,3.30
2018-01-23T21:09:46.950Z,3.47
2018-01-23T21:12:16.193Z,3.87
2018-01-23T21:14:45.461Z,3.80
2018-01-23T21:17:14.729Z,2.87
2018-01-23T21:19:44.862Z,2.87
2018-01-23T21:22:14.902Z,6.33
2018-01-23T21:24:44.141Z,4.33
2018-01-23T21:27:13.812Z,5.00
2018-01-23T21:29:43.106Z,4.13
2018-01-23T21:32:12.377Z,4.77
2018-01-23T21:34:41.669Z,3.93
2018-01-23T21:37:10.913Z,3.83
2018-01-23T21:39:40.202Z,3.27
2018-01-23T21:42:09.475Z,4.00
2018-01-23T21:44:38.765Z,3.53
2018-01-23T21:47:08.013Z,4.30
2018-01-23T21:49:37.307Z,3.93
2018-01-23T21:52:06.578Z,8.10
2018-01-23T21:54:35.825Z,5.20
2018-01-23T21:57:05.198Z,3.83
2018-01-23T21:59:35.308Z,5.83
2018-01-23T22:02:04.550Z,6.63
2018-01-23T22:04:33.842Z,4.37
2018-01-23T22:07:03.201Z,4.13
2018-01-23T22:09:32.511Z,3.83
2018-01-23T22:12:01.763Z,5.67
2018-01-23T22:14:31.053Z,4.40
2018-01-23T22:17:00.321Z,4.27
2018-01-23T22:19:29.562Z,3.90
2018-01-23T22:21:58.853Z,4.80
2018-01-23T22:24:28.182Z,3.63
2018-01-23T22:26:57.490Z,3.57
2018-01-23T22:29:26.768Z,4.20
2018-01-23T22:31:56.037Z,3.80
2018-01-23T22:34:26.052Z,4.10
2018-01-23T22:36:55.311Z,3.20
2018-01-23T22:39:24.561Z,4.60
2018-01-23T22:41:54.580Z,4.43
2018-01-23T22:44:23.844Z,4.40
2018-01-23T22:46:53.089Z,4.50
2018-01-23T22:49:22.330Z,4.23
2018-01-23T22:51:51.598Z,4.10
2018-01-23T22:54:20.866Z,4.80
2018-01-23T22:56:50.363Z,3.97
2018-01-23T22:59:19.616Z,3.60
2018-01-23T23:01:48.880Z,3.60
2018-01-23T23:04:18.901Z,4.00
2018-01-23T23:06:48.318Z,3.90
2018-01-23T23:09:18.351Z,4.57
2018-01-23T23:11:47.898Z,5.43
2018-01-23T23:14:17.141Z,5.00
2018-01-23T23:16:46.425Z,5.30
2018-01-23T23:19:15.857Z,4.83
2018-01-23T23:21:45.109Z,3.57
2018-01-23T23:24:14.394Z,4.57
2018-01-23T23:26:43.657Z,5.20
2018-01-23T23:29:12.896Z,5.50
2018-01-23T23:31:42.158Z,5.13
2018-01-23T23:34:11.448Z,4.90
2018-01-23T23:36:41.512Z,4.70
2018-01-23T23:39:10.831Z,5.53
2018-01-23T23:41:40.049Z,5.10
2018-01-23T23:44:09.297Z,6.73
2018-01-23T23:46:38.569Z,5.90
2018-01-23T23:49:07.818Z,5.20
2018-01-23T23:51:37.126Z,4.90
2018-01-23T23:54:06.398Z,5.20
2018-01-23T23:56:35.664Z,5.07
2018-01-23T23:59:04.946Z,5.57
